createdAt,value
2023-01-26T00:01:22.500Z,5.30
2023-01-26T00:03:52.521Z,5.30
2023-01-26T00:06:24.017Z,5.20
2023-01-26T00:08:54.684Z,5.20
2023-01-26T00:11:27.034Z,5.20
2023-01-26T00:13:57.296Z,5.20
2023-01-26T00:16:26.611Z,5.10
2023-01-26T00:18:55.709Z,5.10
2023-01-26T00:21:27.431Z,5.10
2023-01-26T00:23:57.517Z,5.10
2023-01-26T00:26:28.709Z,5.10
2023-01-26T00:28:57.632Z,5.10
2023-01-26T00:31:28.991Z,5.10
2023-01-26T00:33:58.724Z,5.10
2023-01-26T00:36:29.320Z,5.10
2023-01-26T00:38:58.783Z,5.10
2023-01-26T00:41:44.964Z,5.10
2023-01-26T00:44:14.052Z,5.10
2023-01-26T00:46:43.032Z,5.10
2023-01-26T00:49:12.304Z,5.10
2023-01-26T00:51:42.696Z,5.20
2023-01-26T00:54:11.733Z,5.40
2023-01-26T00:56:41.245Z,5.50
2023-01-26T00:59:10.348Z,5.60
2023-01-26T01:01:39.473Z,5.70
2023-01-26T01:04:08.733Z,5.80
2023-01-26T01:06:38.073Z,5.90
2023-01-26T01:09:08.768Z,6.00
2023-01-26T01:11:37.905Z,6.00
2023-01-26T01:14:06.934Z,6.10
2023-01-26T01:16:35.883Z,6.10
2023-01-26T01:19:08.310Z,6.00
2023-01-26T01:21:38.084Z,6.00
2023-01-26T01:24:09.697Z,5.90
2023-01-26T01:26:39.762Z,5.80
2023-01-26T01:29:09.530Z,5.70
2023-01-26T01:31:39.503Z,5.70
2023-01-26T01:34:08.611Z,5.60
2023-01-26T01:36:37.633Z,5.50
2023-01-26T01:39:08.004Z,5.50
2023-01-26T01:41:37.147Z,5.40
2023-01-26T01:44:17.858Z,5.30
2023-01-26T01:46:52.964Z,5.30
2023-01-26T01:49:25.219Z,5.20
2023-01-26T01:51:58.994Z,5.20
2023-01-26T01:54:34.578Z,5.10
2023-01-26T01:57:15.981Z,5.10
2023-01-26T01:59:49.577Z,5.00
2023-01-26T02:02:19.351Z,5.00
2023-01-26T02:04:49.400Z,4.50
2023-01-26T02:07:18.377Z,4.90
2023-01-26T02:10:06.588Z,4.90
2023-01-26T02:12:37.360Z,4.80
2023-01-26T02:15:07.060Z,4.80
2023-01-26T02:17:36.891Z,4.80
2023-01-26T02:20:13.133Z,4.80
2023-01-26T02:22:49.408Z,4.80
2023-01-26T02:25:33.617Z,4.80
2023-01-26T02:28:04.257Z,4.80
2023-01-26T02:30:33.783Z,4.80
2023-01-26T02:33:03.298Z,4.80
2023-01-26T02:35:32.494Z,4.70
2023-01-26T02:38:02.817Z,4.70
2023-01-26T02:40:39.459Z,4.70
2023-01-26T02:43:08.853Z,4.70
2023-01-26T02:45:41.814Z,4.60
2023-01-26T02:48:10.941Z,4.60
2023-01-26T02:50:38.789Z,4.60
2023-01-26T02:53:07.935Z,4.60
2023-01-26T02:55:36.233Z,4.60
2023-01-26T02:58:07.906Z,4.60
2023-01-26T03:00:40.978Z,4.60
2023-01-26T03:03:16.384Z,4.60
2023-01-26T03:05:45.659Z,4.60
2023-01-26T03:08:15.048Z,4.70
2023-01-26T03:10:44.546Z,4.80
2023-01-26T03:13:13.746Z,4.90
2023-01-26T03:15:48.215Z,5.00
2023-01-26T03:18:35.821Z,5.10
2023-01-26T03:21:29.708Z,5.20
2023-01-26T03:24:16.029Z,5.40
2023-01-26T03:27:03.226Z,5.40
2023-01-26T03:29:33.670Z,5.50
2023-01-26T03:32:05.375Z,5.60
2023-01-26T03:34:35.371Z,5.60
2023-01-26T03:37:06.619Z,5.60
2023-01-26T03:40:09.298Z,5.40
2023-01-26T03:43:14.349Z,5.70
2023-01-26T03:46:00.978Z,5.80
2023-01-26T03:48:51.374Z,5.70
2023-01-26T03:51:37.604Z,5.70
2023-01-26T03:54:23.921Z,5.70
2023-01-26T03:57:11.525Z,5.70
2023-01-26T03:59:40.853Z,5.70
2023-01-26T04:02:31.712Z,5.70
2023-01-26T04:05:21.676Z,5.70
2023-01-26T04:08:12.907Z,5.70
2023-01-26T04:10:42.080Z,5.70
2023-01-26T04:13:28.190Z,5.60
2023-01-26T04:16:20.593Z,5.70
2023-01-26T04:19:06.695Z,5.60
2023-01-26T04:21:37.859Z,5.60
2023-01-26T04:24:17.124Z,5.60
2023-01-26T04:26:47.933Z,5.60
2023-01-26T04:29:23.993Z,5.50
2023-01-26T04:31:53.467Z,5.50
2023-01-26T04:34:24.067Z,5.50
2023-01-26T04:36:55.044Z,5.50
2023-01-26T04:39:27.095Z,5.50
2023-01-26T04:41:58.537Z,5.50
2023-01-26T04:44:27.641Z,5.50
2023-01-26T04:46:56.637Z,5.40
2023-01-26T04:49:25.576Z,5.50
2023-01-26T04:51:55.988Z,5.50
2023-01-26T04:54:25.472Z,5.50
2023-01-26T04:56:55.428Z,5.50
2023-01-26T04:59:24.374Z,5.50
2023-01-26T05:01:57.172Z,5.50
2023-01-26T05:04:26.303Z,5.50
2023-01-26T05:06:57.453Z,5.40
2023-01-26T05:09:28.209Z,5.50
2023-01-26T05:12:31.370Z,5.40
2023-01-26T05:15:23.601Z,5.40
2023-01-26T05:18:16.044Z,5.40
2023-01-26T05:21:12.961Z,5.40
2023-01-26T05:23:48.060Z,5.40
2023-01-26T05:26:41.700Z,5.40
2023-01-26T05:29:15.292Z,5.40
2023-01-26T05:31:44.555Z,5.40
2023-01-26T05:34:13.712Z,5.40
2023-01-26T05:36:42.742Z,5.50
2023-01-26T05:39:13.947Z,5.50
2023-01-26T05:41:42.998Z,5.50
2023-01-26T05:44:29.429Z,5.50
2023-01-26T05:47:04.413Z,5.50
2023-01-26T05:49:33.651Z,5.60
2023-01-26T05:52:02.956Z,5.60
2023-01-26T05:54:33.786Z,5.60
2023-01-26T05:57:02.879Z,5.60
2023-01-26T05:59:33.255Z,5.70
2023-01-26T06:02:02.790Z,5.70
2023-01-26T06:04:32.175Z,5.70
2023-01-26T06:07:02.404Z,5.80
2023-01-26T06:09:38.367Z,5.80
2023-01-26T06:12:25.797Z,5.90
2023-01-26T06:14:57.667Z,6.00
2023-01-26T06:17:34.947Z,6.10
2023-01-26T06:20:07.552Z,6.20
2023-01-26T06:22:37.490Z,6.30
2023-01-26T06:25:08.478Z,6.40
2023-01-26T06:27:42.516Z,6.40
2023-01-26T06:30:26.331Z,6.50
2023-01-26T06:33:00.380Z,6.60
2023-01-26T06:35:30.759Z,6.60
2023-01-26T06:38:03.308Z,6.60
2023-01-26T06:40:33.732Z,6.70
2023-01-26T06:43:21.363Z,6.70
2023-01-26T06:45:50.494Z,6.80
2023-01-26T06:48:20.736Z,6.90
2023-01-26T06:50:52.380Z,7.00
2023-01-26T06:53:31.213Z,7.10
2023-01-26T06:56:33.753Z,7.20
2023-01-26T06:59:38.564Z,7.20
2023-01-26T07:02:25.941Z,7.30
2023-01-26T07:05:13.400Z,7.40
2023-01-26T07:07:42.317Z,7.40
2023-01-26T07:10:12.928Z,7.40
2023-01-26T07:12:45.395Z,7.50
2023-01-26T07:15:15.135Z,7.50
2023-01-26T07:17:44.145Z,7.60
2023-01-26T07:20:13.737Z,7.70
2023-01-26T07:22:42.799Z,7.70
2023-01-26T07:25:11.920Z,7.80
2023-01-26T07:27:40.850Z,7.90
2023-01-26T07:30:14.489Z,8.00
2023-01-26T07:32:43.716Z,8.10
2023-01-26T07:35:12.693Z,8.20
2023-01-26T07:37:41.654Z,8.40
2023-01-26T07:40:12.302Z,8.60
2023-01-26T07:43:00.617Z,8.90
2023-01-26T07:45:54.233Z,9.20
2023-01-26T07:48:25.200Z,9.50
2023-01-26T07:50:54.372Z,9.70
2023-01-26T07:53:23.289Z,9.80
2023-01-26T07:55:52.314Z,9.90
2023-01-26T07:58:21.584Z,10.00
2023-01-26T08:00:51.965Z,10.10
2023-01-26T08:03:21.019Z,10.30
2023-01-26T08:05:50.039Z,10.60
2023-01-26T08:08:19.573Z,10.70
2023-01-26T08:10:48.532Z,10.70
2023-01-26T08:13:29.942Z,10.60
2023-01-26T08:16:07.427Z,10.50
2023-01-26T08:18:36.658Z,10.30
2023-01-26T08:21:06.072Z,10.10
2023-01-26T08:23:35.139Z,10.00
2023-01-26T08:26:04.941Z,9.80
2023-01-26T08:28:34.509Z,9.70
2023-01-26T08:31:08.496Z,9.60
2023-01-26T08:33:37.637Z,9.50
2023-01-26T08:36:08.817Z,9.40
2023-01-26T08:38:37.873Z,9.50
2023-01-26T08:41:07.645Z,9.50
2023-01-26T08:43:36.693Z,9.50
2023-01-26T08:46:07.693Z,9.60
2023-01-26T08:48:37.561Z,9.60
2023-01-26T08:51:08.714Z,9.60
2023-01-26T08:53:39.048Z,9.70
2023-01-26T08:56:10.204Z,9.80
2023-01-26T08:58:39.556Z,9.80
2023-01-26T09:01:12.971Z,9.80
2023-01-26T09:03:42.113Z,9.90
2023-01-26T09:06:13.830Z,10.00
2023-01-26T09:08:43.719Z,10.30
2023-01-26T09:11:13.659Z,10.70
2023-01-26T09:13:42.808Z,11.20
2023-01-26T09:16:19.844Z,11.60
2023-01-26T09:18:51.591Z,11.90
2023-01-26T09:21:21.001Z,12.40
2023-01-26T09:23:50.052Z,12.70
2023-01-26T09:26:19.051Z,12.90
2023-01-26T09:28:52.278Z,12.90
2023-01-26T09:31:22.882Z,12.90
2023-01-26T09:33:52.825Z,12.90
2023-01-26T09:36:21.852Z,12.90
2023-01-26T09:38:51.483Z,12.90
2023-01-26T09:41:36.313Z,13.00
2023-01-26T09:44:09.555Z,13.00
2023-01-26T09:46:56.959Z,13.20
2023-01-26T09:49:31.608Z,13.30
2023-01-26T09:52:06.795Z,13.40
2023-01-26T09:54:40.609Z,13.30
2023-01-26T09:57:15.109Z,13.10
2023-01-26T09:59:49.322Z,12.90
2023-01-26T10:02:32.746Z,12.60
2023-01-26T10:05:06.252Z,12.30
2023-01-26T10:07:35.552Z,12.00
2023-01-26T10:10:06.045Z,11.80
2023-01-26T10:12:37.909Z,11.50
2023-01-26T10:15:11.908Z,11.40
2023-01-26T10:17:44.463Z,11.20
2023-01-26T10:20:26.126Z,11.10
2023-01-26T10:22:58.110Z,11.10
2023-01-26T10:25:47.710Z,11.20
2023-01-26T10:28:19.003Z,11.30
2023-01-26T10:30:51.504Z,11.40
2023-01-26T10:33:28.912Z,11.50
2023-01-26T10:35:58.037Z,11.60
2023-01-26T10:38:45.096Z,11.70
2023-01-26T10:41:30.330Z,11.80
2023-01-26T10:44:02.777Z,11.90
2023-01-26T10:46:34.657Z,12.00
2023-01-26T10:49:16.317Z,12.20
2023-01-26T10:51:46.515Z,12.30
2023-01-26T10:54:21.124Z,12.40
2023-01-26T10:56:53.431Z,12.40
2023-01-26T10:59:30.051Z,12.50
2023-01-26T11:02:01.459Z,12.70
2023-01-26T11:04:32.269Z,12.90
2023-01-26T11:07:25.621Z,13.00
2023-01-26T11:09:55.179Z,13.20
2023-01-26T11:12:27.291Z,13.10
2023-01-26T11:15:04.373Z,13.00
2023-01-26T11:17:58.738Z,12.90
2023-01-26T11:20:48.515Z,12.80
2023-01-26T11:23:26.095Z,12.70
2023-01-26T11:26:14.098Z,12.70
2023-01-26T11:28:55.131Z,12.80
2023-01-26T11:31:34.060Z,12.80
2023-01-26T11:34:14.140Z,12.80
2023-01-26T11:36:54.124Z,12.80
2023-01-26T11:39:30.200Z,12.80
2023-01-26T11:42:11.625Z,12.80
2023-01-26T11:45:08.172Z,12.80
2023-01-26T11:47:50.992Z,12.80
2023-01-26T11:50:35.796Z,12.90
2023-01-26T11:53:31.031Z,12.90
2023-01-26T11:56:21.027Z,13.00
2023-01-26T11:58:56.526Z,13.00
2023-01-26T12:01:31.171Z,13.10
2023-01-26T12:04:00.270Z,13.20
2023-01-26T12:06:38.141Z,13.30
2023-01-26T12:09:19.181Z,13.30
2023-01-26T12:11:54.572Z,13.30
2023-01-26T12:14:29.089Z,13.30
2023-01-26T12:17:18.371Z,13.40
2023-01-26T12:19:54.263Z,13.40
2023-01-26T12:22:31.221Z,13.40
2023-01-26T12:25:19.028Z,13.40
2023-01-26T12:27:56.438Z,13.40
2023-01-26T12:30:42.241Z,13.40
2023-01-26T12:33:12.780Z,13.40
2023-01-26T12:36:01.811Z,13.40
2023-01-26T12:38:44.914Z,13.40
2023-01-26T12:41:20.577Z,13.40
2023-01-26T12:44:02.008Z,13.30
2023-01-26T12:46:33.937Z,13.30
2023-01-26T12:49:08.806Z,13.30
2023-01-26T12:51:42.669Z,13.30
2023-01-26T12:54:19.551Z,13.30
2023-01-26T12:56:54.876Z,13.30
2023-01-26T12:59:46.379Z,13.30
2023-01-26T13:02:30.550Z,13.30
2023-01-26T13:05:28.135Z,13.30
2023-01-26T13:07:57.195Z,13.30
2023-01-26T13:10:45.905Z,13.30
2023-01-26T13:13:34.282Z,13.30
2023-01-26T13:16:34.354Z,13.30
2023-01-26T13:19:04.466Z,13.30
2023-01-26T13:21:45.639Z,13.30
2023-01-26T13:24:44.878Z,13.20
2023-01-26T13:27:30.687Z,13.20
2023-01-26T13:30:01.774Z,13.20
2023-01-26T13:33:05.849Z,13.20
2023-01-26T13:35:36.977Z,13.20
2023-01-26T13:38:15.724Z,13.10
2023-01-26T13:40:48.276Z,13.10
2023-01-26T13:43:27.097Z,13.10
2023-01-26T13:46:11.373Z,13.10
2023-01-26T13:48:47.463Z,13.10
2023-01-26T13:51:19.916Z,13.10
2023-01-26T13:53:58.624Z,13.10
2023-01-26T13:56:31.206Z,13.10
2023-01-26T13:59:20.922Z,13.10
2023-01-26T14:01:53.105Z,13.10
2023-01-26T14:04:23.822Z,13.10
2023-01-26T14:06:57.897Z,13.10
2023-01-26T14:09:49.137Z,13.10
2023-01-26T14:12:23.921Z,13.10
2023-01-26T14:14:56.000Z,13.10
2023-01-26T14:17:31.314Z,13.10
2023-01-26T14:20:03.806Z,13.20
2023-01-26T14:22:33.064Z,13.20
2023-01-26T14:25:01.953Z,13.30
2023-01-26T14:27:38.321Z,13.30
2023-01-26T14:30:23.184Z,13.40
2023-01-26T14:32:57.588Z,13.50
2023-01-26T14:35:28.414Z,13.60
2023-01-26T14:38:07.948Z,13.70
2023-01-26T14:40:37.107Z,13.70
2023-01-26T14:43:06.218Z,13.80
2023-01-26T14:45:35.930Z,13.80
2023-01-26T14:48:10.608Z,13.80
2023-01-26T14:50:41.504Z,13.80
2023-01-26T14:53:19.737Z,13.80
2023-01-26T14:55:52.132Z,13.70
2023-01-26T14:58:24.614Z,13.70
2023-01-26T15:01:21.204Z,13.70
2023-01-26T15:03:57.881Z,13.60
2023-01-26T15:06:29.757Z,13.60
2023-01-26T15:09:01.953Z,13.60
2023-01-26T15:11:53.655Z,13.60
2023-01-26T15:14:36.545Z,13.60
2023-01-26T15:17:06.338Z,13.50
2023-01-26T15:19:44.136Z,13.50
2023-01-26T15:22:23.327Z,13.40
2023-01-26T15:25:03.068Z,13.40
2023-01-26T15:27:38.865Z,13.40
2023-01-26T15:30:09.228Z,13.30
2023-01-26T15:32:42.062Z,13.30
2023-01-26T15:35:24.936Z,13.20
2023-01-26T15:38:03.061Z,13.20
2023-01-26T15:40:32.315Z,13.10
2023-01-26T15:43:13.261Z,13.10
2023-01-26T15:45:43.946Z,13.10
2023-01-26T15:48:13.144Z,13.00
2023-01-26T15:50:43.547Z,13.00
2023-01-26T15:53:15.389Z,13.00
2023-01-26T15:55:45.558Z,13.00
2023-01-26T15:58:14.691Z,13.00
2023-01-26T16:00:43.785Z,13.10
2023-01-26T16:03:16.876Z,13.10
2023-01-26T16:05:48.879Z,13.10
2023-01-26T16:08:18.414Z,13.10
2023-01-26T16:10:48.246Z,13.10
2023-01-26T16:13:20.914Z,13.10
2023-01-26T16:15:51.925Z,13.10
2023-01-26T16:18:21.402Z,13.10
2023-01-26T16:20:52.378Z,13.10
2023-01-26T16:23:23.635Z,13.10
2023-01-26T16:25:53.272Z,13.10
2023-01-26T16:28:22.868Z,13.10
2023-01-26T16:30:52.308Z,13.20
2023-01-26T16:33:22.399Z,13.20
2023-01-26T16:35:52.913Z,13.20
2023-01-26T16:38:22.086Z,13.20
2023-01-26T16:40:51.618Z,13.20
2023-01-26T16:43:24.179Z,13.30
2023-01-26T16:45:54.054Z,13.30
2023-01-26T16:48:24.248Z,13.30
2023-01-26T16:50:55.824Z,13.30
2023-01-26T16:53:27.742Z,13.30
2023-01-26T16:55:56.904Z,13.30
2023-01-26T16:58:26.796Z,13.30
2023-01-26T17:00:56.485Z,13.30
2023-01-26T17:03:25.869Z,13.30
2023-01-26T17:05:57.426Z,13.30
2023-01-26T17:08:26.571Z,13.30
2023-01-26T17:11:02.388Z,13.30
2023-01-26T17:13:32.744Z,13.30
2023-01-26T17:16:01.822Z,13.30
2023-01-26T17:18:33.625Z,13.20
2023-01-26T17:21:07.735Z,13.30
2023-01-26T17:23:39.044Z,13.30
2023-01-26T17:26:08.244Z,13.30
2023-01-26T17:28:37.105Z,13.40
2023-01-26T17:31:11.149Z,13.60
2023-01-26T17:33:40.649Z,13.50
2023-01-26T17:36:11.967Z,13.50
2023-01-26T17:38:40.958Z,13.60
2023-01-26T17:41:10.766Z,13.60
2023-01-26T17:43:39.802Z,13.60
2023-01-26T17:46:10.359Z,13.60
2023-01-26T17:48:39.644Z,13.60
2023-01-26T17:51:11.211Z,13.70
2023-01-26T17:53:40.577Z,13.70
2023-01-26T17:56:11.153Z,13.60
2023-01-26T17:58:40.641Z,13.60
2023-01-26T18:01:11.367Z,13.60
2023-01-26T18:03:43.394Z,13.60
2023-01-26T18:06:32.478Z,13.60
2023-01-26T18:09:01.519Z,13.60
2023-01-26T18:11:30.512Z,13.70
2023-01-26T18:13:59.749Z,13.60
2023-01-26T18:16:28.770Z,13.60
2023-01-26T18:18:59.492Z,13.60
2023-01-26T18:21:30.432Z,13.60
2023-01-26T18:24:03.537Z,13.60
2023-01-26T18:26:35.084Z,13.60
2023-01-26T18:29:06.239Z,13.60
2023-01-26T18:31:37.298Z,13.60
2023-01-26T18:34:25.070Z,13.60
2023-01-26T18:36:54.055Z,13.60
2023-01-26T18:39:24.576Z,13.70
2023-01-26T18:41:53.591Z,13.70
2023-01-26T18:44:22.840Z,13.80
2023-01-26T18:46:51.853Z,13.80
2023-01-26T18:49:21.015Z,13.90
2023-01-26T18:51:50.892Z,13.90
2023-01-26T18:54:20.308Z,13.90
2023-01-26T18:56:50.715Z,14.00
2023-01-26T18:59:20.100Z,14.00
2023-01-26T19:01:49.429Z,14.10
2023-01-26T19:04:18.581Z,14.10
2023-01-26T19:06:48.183Z,14.10
2023-01-26T19:09:17.204Z,14.20
2023-01-26T19:11:46.164Z,14.20
2023-01-26T19:14:16.769Z,14.30
2023-01-26T19:16:47.865Z,14.20
2023-01-26T19:19:17.143Z,14.30
2023-01-26T19:21:46.102Z,14.30
2023-01-26T19:24:15.623Z,14.30
2023-01-26T19:26:44.617Z,14.20
2023-01-26T19:29:13.843Z,14.30
2023-01-26T19:31:44.332Z,14.30
2023-01-26T19:34:17.099Z,14.30
2023-01-26T19:36:47.185Z,14.40
2023-01-26T19:39:16.240Z,14.40
2023-01-26T19:41:46.470Z,14.40
2023-01-26T19:44:15.427Z,14.50
2023-01-26T19:46:45.826Z,14.50
2023-01-26T19:49:16.327Z,14.50
2023-01-26T19:51:45.314Z,14.60
2023-01-26T19:54:14.900Z,14.60
2023-01-26T19:56:43.831Z,14.60
2023-01-26T19:59:13.536Z,14.70
2023-01-26T20:01:42.466Z,14.70
2023-01-26T20:04:16.149Z,14.70
2023-01-26T20:06:45.176Z,14.70
2023-01-26T20:09:14.125Z,14.70
2023-01-26T20:11:43.123Z,14.60
2023-01-26T20:14:12.769Z,14.60
2023-01-26T20:16:42.108Z,14.50
2023-01-26T20:19:14.535Z,14.50
2023-01-26T20:21:43.654Z,14.50
2023-01-26T20:24:17.140Z,14.40
2023-01-26T20:26:46.399Z,14.40
2023-01-26T20:29:17.277Z,14.40
2023-01-26T20:31:47.233Z,14.40
2023-01-26T20:34:18.191Z,14.40
2023-01-26T20:36:47.311Z,14.40
2023-01-26T20:39:24.884Z,14.40
2023-01-26T20:41:55.411Z,14.40
2023-01-26T20:44:24.524Z,14.30
2023-01-26T20:46:53.476Z,14.30
2023-01-26T20:49:23.931Z,14.30
2023-01-26T20:51:52.948Z,14.20
2023-01-26T20:54:22.971Z,14.20
2023-01-26T20:56:52.037Z,14.20
2023-01-26T20:59:22.335Z,14.10
2023-01-26T21:01:51.775Z,14.10
2023-01-26T21:04:20.801Z,14.10
2023-01-26T21:06:51.348Z,14.10
2023-01-26T21:09:21.391Z,14.10
2023-01-26T21:11:50.370Z,14.10
2023-01-26T21:14:20.523Z,14.10
2023-01-26T21:16:50.068Z,14.00
2023-01-26T21:19:22.030Z,14.00
2023-01-26T21:21:52.908Z,13.90
2023-01-26T21:24:23.473Z,13.90
2023-01-26T21:26:52.743Z,13.90
2023-01-26T21:29:22.112Z,13.80
2023-01-26T21:31:52.449Z,13.80
2023-01-26T21:34:23.242Z,13.70
2023-01-26T21:36:54.147Z,13.70
2023-01-26T21:39:23.232Z,13.70
2023-01-26T21:41:58.221Z,13.70
2023-01-26T21:44:28.711Z,13.70
2023-01-26T21:46:59.632Z,13.70
2023-01-26T21:49:29.943Z,13.70
2023-01-26T21:52:18.013Z,13.70
2023-01-26T21:54:47.624Z,13.70
2023-01-26T21:57:34.738Z,13.70
2023-01-26T22:00:04.025Z,13.60
2023-01-26T22:02:33.562Z,13.60
2023-01-26T22:05:02.536Z,13.60
2023-01-26T22:07:33.679Z,13.70
2023-01-26T22:10:02.806Z,13.70
2023-01-26T22:12:32.058Z,13.80
2023-01-26T22:15:01.379Z,13.60
2023-01-26T22:17:30.296Z,13.80
2023-01-26T22:19:59.740Z,13.90
2023-01-26T22:22:28.750Z,13.90
2023-01-26T22:24:59.914Z,13.90
2023-01-26T22:27:29.365Z,13.90
2023-01-26T22:29:58.274Z,13.90
2023-01-26T22:32:27.862Z,13.90
2023-01-26T22:34:56.857Z,13.90
2023-01-26T22:37:25.974Z,13.90
2023-01-26T22:39:54.909Z,13.90
2023-01-26T22:42:25.601Z,13.90
2023-01-26T22:44:54.633Z,13.90
2023-01-26T22:47:23.578Z,13.90
2023-01-26T22:49:52.593Z,13.90
2023-01-26T22:52:21.460Z,13.90
2023-01-26T22:54:50.364Z,13.90
2023-01-26T22:57:19.617Z,13.90
2023-01-26T22:59:50.028Z,13.80
2023-01-26T23:02:19.047Z,13.80
2023-01-26T23:04:48.092Z,13.80
2023-01-26T23:07:16.944Z,13.80
2023-01-26T23:09:45.883Z,13.90
2023-01-26T23:12:14.768Z,13.90
2023-01-26T23:14:43.660Z,13.90
2023-01-26T23:17:14.196Z,13.90
2023-01-26T23:19:43.106Z,13.90
2023-01-26T23:22:12.008Z,13.90
2023-01-26T23:24:40.933Z,13.90
2023-01-26T23:27:09.857Z,13.90
2023-01-26T23:29:38.718Z,13.90
2023-01-26T23:32:08.062Z,13.90
2023-01-26T23:34:38.443Z,13.90
2023-01-26T23:37:07.553Z,13.90
2023-01-26T23:39:36.456Z,13.90
2023-01-26T23:42:05.457Z,13.90
2023-01-26T23:44:34.499Z,13.90
2023-01-26T23:47:03.489Z,13.90
2023-01-26T23:49:32.477Z,13.90
2023-01-26T23:52:02.902Z,13.90
2023-01-26T23:54:31.745Z,13.90
2023-01-26T23:57:00.771Z,13.90
2023-01-26T23:59:30.042Z,13.90
